createdAt,value
2023-05-11T00:00:03.685Z,13.80
2023-05-11T00:02:32.620Z,13.70
2023-05-11T00:05:00.173Z,13.70
2023-05-11T00:07:27.516Z,13.60
2023-05-11T00:09:55.019Z,13.70
2023-05-11T00:12:22.320Z,13.70
2023-05-11T00:14:49.652Z,13.60
2023-05-11T00:17:18.898Z,13.60
2023-05-11T00:19:46.705Z,13.60
2023-05-11T00:22:13.968Z,13.60
2023-05-11T00:24:41.324Z,13.60
2023-05-11T00:27:08.679Z,13.50
2023-05-11T00:29:36.073Z,13.40
2023-05-11T00:32:03.349Z,13.30
2023-05-11T00:34:30.847Z,13.10
2023-05-11T00:36:58.109Z,13.10
2023-05-11T00:39:25.495Z,13.10
2023-05-11T00:41:52.833Z,13.20
2023-05-11T00:44:20.199Z,13.20
2023-05-11T00:46:47.888Z,13.20
2023-05-11T00:49:17.571Z,13.30
2023-05-11T00:51:45.004Z,13.40
2023-05-11T00:54:15.611Z,13.40
2023-05-11T00:56:43.184Z,13.40
2023-05-11T00:59:10.694Z,13.30
2023-05-11T01:01:39.431Z,13.30
2023-05-11T01:04:08.130Z,13.40
2023-05-11T01:06:47.957Z,13.50
2023-05-11T01:09:25.703Z,13.50
2023-05-11T01:12:03.846Z,13.40
2023-05-11T01:14:37.274Z,13.30
2023-05-11T01:17:11.404Z,13.10
2023-05-11T01:19:45.660Z,13.00
2023-05-11T01:22:23.417Z,12.90
2023-05-11T01:25:05.396Z,12.90
2023-05-11T01:27:43.627Z,12.90
2023-05-11T01:30:19.675Z,12.90
2023-05-11T01:32:47.325Z,13.00
2023-05-11T01:35:19.853Z,12.90
2023-05-11T01:37:51.862Z,13.00
2023-05-11T01:40:23.925Z,12.80
2023-05-11T01:43:02.621Z,12.70
2023-05-11T01:45:33.263Z,12.60
2023-05-11T01:48:04.472Z,12.60
2023-05-11T01:50:32.870Z,12.60
2023-05-11T01:53:03.748Z,12.70
2023-05-11T01:55:35.536Z,12.70
2023-05-11T01:58:05.834Z,12.60
2023-05-11T02:00:34.215Z,12.60
2023-05-11T02:03:05.846Z,12.50
2023-05-11T02:05:35.248Z,12.50
2023-05-11T02:08:06.070Z,12.50
2023-05-11T02:10:36.113Z,12.50
2023-05-11T02:13:05.492Z,12.50
2023-05-11T02:15:37.789Z,12.50
2023-05-11T02:18:07.121Z,12.50
2023-05-11T02:20:35.600Z,12.50
2023-05-11T02:23:03.849Z,12.40
2023-05-11T02:25:32.036Z,12.40
2023-05-11T02:27:59.556Z,12.40
2023-05-11T02:30:32.003Z,12.40
2023-05-11T02:33:06.476Z,12.40
2023-05-11T02:35:41.188Z,12.40
2023-05-11T02:38:10.973Z,12.40
2023-05-11T02:40:46.455Z,12.40
2023-05-11T02:43:20.654Z,12.50
2023-05-11T02:46:02.491Z,12.50
2023-05-11T02:48:36.897Z,12.50
2023-05-11T02:51:08.630Z,12.40
2023-05-11T02:53:42.950Z,12.30
2023-05-11T02:56:10.692Z,12.30
2023-05-11T02:58:38.366Z,12.20
2023-05-11T03:01:08.228Z,12.20
2023-05-11T03:03:35.995Z,12.30
2023-05-11T03:06:03.800Z,12.30
2023-05-11T03:08:31.024Z,12.30
2023-05-11T03:10:59.226Z,12.30
2023-05-11T03:13:28.964Z,12.30
2023-05-11T03:15:59.424Z,12.30
2023-05-11T03:18:27.303Z,12.30
2023-05-11T03:20:55.475Z,12.30
2023-05-11T03:23:23.656Z,12.30
2023-05-11T03:25:51.335Z,12.30
2023-05-11T03:28:20.442Z,12.20
2023-05-11T03:30:57.564Z,12.10
2023-05-11T03:33:25.227Z,12.00
2023-05-11T03:35:54.275Z,11.90
2023-05-11T03:38:25.028Z,11.90
2023-05-11T03:40:56.276Z,11.80
2023-05-11T03:43:27.390Z,11.60
2023-05-11T03:45:58.178Z,11.60
2023-05-11T03:48:27.606Z,11.50
2023-05-11T03:50:56.648Z,11.60
2023-05-11T03:53:24.530Z,11.60
2023-05-11T03:55:53.022Z,11.60
2023-05-11T03:58:21.465Z,11.60
2023-05-11T04:00:49.578Z,11.60
2023-05-11T04:03:18.539Z,11.70
2023-05-11T04:05:46.100Z,11.70
2023-05-11T04:08:14.242Z,11.70
2023-05-11T04:10:41.551Z,11.80
2023-05-11T04:13:09.100Z,11.90
2023-05-11T04:15:37.717Z,12.00
2023-05-11T04:18:05.218Z,12.00
2023-05-11T04:20:32.760Z,12.00
2023-05-11T04:23:00.176Z,12.00
2023-05-11T04:25:27.639Z,11.90
2023-05-11T04:27:55.039Z,11.80
2023-05-11T04:30:22.399Z,11.90
2023-05-11T04:32:50.198Z,11.90
2023-05-11T04:35:17.841Z,11.90
2023-05-11T04:37:45.607Z,11.90
2023-05-11T04:40:13.664Z,11.90
2023-05-11T04:42:43.027Z,12.00
2023-05-11T04:45:15.211Z,12.00
2023-05-11T04:47:43.340Z,12.00
2023-05-11T04:50:11.751Z,11.90
2023-05-11T04:52:39.762Z,11.90
2023-05-11T04:55:07.488Z,11.90
2023-05-11T04:57:35.009Z,11.90
2023-05-11T05:00:05.470Z,11.80
2023-05-11T05:02:33.042Z,11.80
2023-05-11T05:05:01.346Z,11.90
2023-05-11T05:07:28.974Z,12.00
2023-05-11T05:09:56.810Z,12.00
2023-05-11T05:12:24.369Z,12.00
2023-05-11T05:14:51.659Z,12.00
2023-05-11T05:17:19.160Z,12.10
2023-05-11T05:19:46.530Z,12.00
2023-05-11T05:22:13.947Z,12.00
2023-05-11T05:24:41.838Z,12.00
2023-05-11T05:27:09.624Z,12.00
2023-05-11T05:29:36.850Z,12.00
2023-05-11T05:32:04.184Z,11.90
2023-05-11T05:34:31.258Z,11.90
2023-05-11T05:36:58.694Z,11.90
2023-05-11T05:39:25.909Z,11.80
2023-05-11T05:41:53.203Z,11.80
2023-05-11T05:44:20.748Z,11.80
2023-05-11T05:46:48.133Z,11.90
2023-05-11T05:49:15.596Z,12.00
2023-05-11T05:51:42.990Z,12.00
2023-05-11T05:54:11.404Z,12.10
2023-05-11T05:56:39.389Z,12.20
2023-05-11T05:59:10.029Z,12.20
2023-05-11T06:01:41.442Z,12.20
2023-05-11T06:04:08.955Z,12.20
2023-05-11T06:06:36.295Z,12.30
2023-05-11T06:09:03.595Z,12.30
2023-05-11T06:11:30.716Z,12.50
2023-05-11T06:13:58.687Z,12.60
2023-05-11T06:16:27.055Z,12.70
2023-05-11T06:18:54.470Z,12.90
2023-05-11T06:21:21.744Z,12.90
2023-05-11T06:23:49.116Z,13.00
2023-05-11T06:26:16.361Z,13.10
2023-05-11T06:28:43.814Z,13.20
2023-05-11T06:31:15.555Z,13.30
2023-05-11T06:33:44.161Z,13.30
2023-05-11T06:36:20.040Z,13.50
2023-05-11T06:38:47.363Z,13.70
2023-05-11T06:41:14.651Z,13.70
2023-05-11T06:43:42.375Z,13.70
2023-05-11T06:46:20.894Z,13.60
2023-05-11T06:48:48.358Z,13.50
2023-05-11T06:51:15.671Z,13.40
2023-05-11T06:53:44.639Z,13.40
2023-05-11T06:56:11.840Z,13.30
2023-05-11T06:58:39.322Z,13.30
2023-05-11T07:01:08.200Z,13.30
2023-05-11T07:03:36.342Z,13.20
2023-05-11T07:06:04.109Z,13.20
2023-05-11T07:08:31.622Z,13.20
2023-05-11T07:10:58.865Z,13.20
2023-05-11T07:13:26.090Z,13.20
2023-05-11T07:15:54.660Z,13.20
2023-05-11T07:18:24.192Z,13.30
2023-05-11T07:20:51.525Z,13.30
2023-05-11T07:23:19.185Z,13.40
2023-05-11T07:25:46.359Z,13.40
2023-05-11T07:28:13.634Z,13.40
2023-05-11T07:30:41.733Z,13.50
2023-05-11T07:33:09.093Z,13.60
2023-05-11T07:35:36.454Z,13.80
2023-05-11T07:38:05.306Z,13.80
2023-05-11T07:40:32.468Z,13.90
2023-05-11T07:42:59.683Z,14.00
2023-05-11T07:45:26.803Z,14.00
2023-05-11T07:47:54.077Z,14.10
2023-05-11T07:50:23.882Z,14.10
2023-05-11T07:52:52.343Z,14.10
2023-05-11T07:55:20.745Z,14.20
2023-05-11T07:57:48.224Z,14.20
2023-05-11T08:00:16.110Z,14.30
2023-05-11T08:02:43.482Z,14.30
2023-05-11T08:05:10.851Z,14.40
2023-05-11T08:07:41.025Z,14.50
2023-05-11T08:10:10.003Z,14.50
2023-05-11T08:12:37.339Z,14.70
2023-05-11T08:15:05.610Z,15.10
2023-05-11T08:17:33.164Z,15.40
2023-05-11T08:20:00.484Z,15.90
2023-05-11T08:22:27.930Z,16.10
2023-05-11T08:24:55.144Z,16.30
2023-05-11T08:27:22.423Z,16.50
2023-05-11T08:29:50.165Z,16.50
2023-05-11T08:32:17.403Z,16.40
2023-05-11T08:34:44.866Z,16.50
2023-05-11T08:37:12.200Z,16.50
2023-05-11T08:39:47.305Z,16.40
2023-05-11T08:42:18.032Z,16.50
2023-05-11T08:44:45.758Z,16.60
2023-05-11T08:49:43.958Z,17.10
2023-05-11T08:52:12.752Z,17.10
2023-05-11T08:54:39.966Z,17.30
2023-05-11T08:57:07.879Z,17.70
2023-05-11T08:59:35.954Z,17.80
2023-05-11T09:02:04.833Z,17.90
2023-05-11T09:04:33.626Z,17.90
2023-05-11T09:07:01.261Z,18.00
2023-05-11T09:09:28.714Z,18.30
2023-05-11T09:11:56.303Z,18.70
2023-05-11T09:16:53.874Z,18.80
2023-05-11T09:19:21.978Z,18.70
2023-05-11T09:21:49.230Z,18.70
2023-05-11T09:24:16.573Z,18.70
2023-05-11T09:26:43.729Z,18.70
2023-05-11T09:29:11.784Z,18.90
2023-05-11T09:31:47.430Z,19.00
2023-05-11T09:34:18.213Z,19.20
2023-05-11T09:36:47.883Z,19.40
2023-05-11T09:39:16.691Z,19.50
2023-05-11T09:41:44.088Z,19.50
2023-05-11T09:44:14.580Z,19.30
2023-05-11T09:46:44.122Z,19.00
2023-05-11T09:49:12.385Z,18.60
2023-05-11T09:51:41.286Z,18.40
2023-05-11T09:54:11.460Z,18.70
2023-05-11T09:56:42.147Z,18.80
2023-05-11T09:59:09.318Z,19.00
2023-05-11T10:01:38.102Z,19.20
2023-05-11T10:04:22.160Z,19.20
2023-05-11T10:06:53.847Z,19.20
2023-05-11T10:09:25.934Z,19.20
2023-05-11T10:11:55.600Z,19.40
2023-05-11T10:14:23.711Z,19.70
2023-05-11T10:16:52.375Z,19.80
2023-05-11T10:19:19.852Z,19.60
2023-05-11T10:21:47.796Z,19.40
2023-05-11T10:24:17.158Z,19.20
2023-05-11T10:26:45.718Z,19.60
2023-05-11T10:29:13.544Z,19.90
2023-05-11T10:31:41.021Z,20.00
2023-05-11T10:34:10.786Z,20.30
2023-05-11T10:36:38.953Z,20.60
2023-05-11T10:39:06.091Z,20.50
2023-05-11T10:41:41.892Z,20.40
2023-05-11T10:44:20.277Z,20.10
2023-05-11T10:46:56.355Z,20.30
2023-05-11T10:49:46.361Z,20.40
2023-05-11T10:52:21.676Z,20.50
2023-05-11T10:55:01.014Z,20.50
2023-05-11T10:57:43.777Z,20.20
2023-05-11T11:00:21.619Z,20.20
2023-05-11T11:02:49.121Z,20.40
2023-05-11T11:05:33.698Z,20.20
2023-05-11T11:08:04.446Z,20.10
2023-05-11T11:10:34.821Z,20.20
2023-05-11T11:13:06.156Z,20.20
2023-05-11T11:15:36.440Z,20.30
2023-05-11T11:18:06.724Z,20.30
2023-05-11T11:20:37.412Z,20.10
2023-05-11T11:23:04.584Z,19.90
2023-05-11T11:25:34.888Z,19.70
2023-05-11T11:28:02.087Z,19.50
2023-05-11T11:30:30.874Z,19.30
2023-05-11T11:33:01.413Z,19.20
2023-05-11T11:35:31.948Z,19.20
2023-05-11T11:38:03.074Z,19.20
2023-05-11T11:40:43.211Z,19.30
2023-05-11T11:43:20.233Z,19.40
2023-05-11T11:45:50.587Z,19.60
2023-05-11T11:48:23.155Z,19.90
2023-05-11T11:51:03.417Z,20.20
2023-05-11T11:53:33.999Z,20.20
2023-05-11T11:56:01.239Z,20.30
2023-05-11T11:58:31.538Z,20.30
2023-05-11T12:00:59.808Z,20.40
2023-05-11T12:03:27.622Z,20.40
2023-05-11T12:05:59.295Z,20.30
2023-05-11T12:08:31.288Z,19.90
2023-05-11T12:11:00.370Z,19.40
2023-05-11T12:13:28.492Z,19.00
2023-05-11T12:15:58.773Z,18.50
2023-05-11T12:18:25.932Z,18.10
2023-05-11T12:20:53.230Z,17.70
2023-05-11T12:23:20.942Z,17.60
2023-05-11T12:26:02.598Z,17.50
2023-05-11T12:28:29.985Z,17.60
2023-05-11T12:30:59.143Z,17.50
2023-05-11T12:33:27.860Z,17.50
2023-05-11T12:35:57.394Z,17.40
2023-05-11T12:38:24.641Z,17.40
2023-05-11T12:40:54.391Z,17.50
2023-05-11T12:43:23.132Z,17.60
2023-05-11T12:45:50.418Z,17.80
2023-05-11T12:48:18.312Z,18.10
2023-05-11T12:50:46.745Z,18.30
2023-05-11T12:53:15.976Z,18.40
2023-05-11T12:55:43.845Z,18.60
2023-05-11T12:58:15.297Z,18.90
2023-05-11T13:00:45.674Z,19.10
2023-05-11T13:03:12.961Z,19.40
2023-05-11T13:05:41.109Z,19.40
2023-05-11T13:08:10.096Z,19.40
2023-05-11T13:10:37.345Z,19.50
2023-05-11T13:13:04.625Z,19.30
2023-05-11T13:15:32.035Z,19.00
2023-05-11T13:18:01.638Z,18.70
2023-05-11T13:20:31.499Z,18.60
2023-05-11T13:23:02.023Z,18.40
2023-05-11T13:25:29.432Z,18.30
2023-05-11T13:27:56.631Z,18.20
2023-05-11T13:30:24.179Z,18.10
2023-05-11T13:32:51.431Z,17.90
2023-05-11T13:35:19.022Z,17.80
2023-05-11T13:37:47.255Z,17.80
2023-05-11T13:40:14.515Z,17.80
2023-05-11T13:42:42.602Z,17.80
2023-05-11T13:45:10.154Z,17.70
2023-05-11T13:47:37.742Z,17.60
2023-05-11T13:50:05.662Z,17.60
2023-05-11T13:52:32.934Z,17.80
2023-05-11T13:55:00.176Z,18.10
2023-05-11T13:57:27.357Z,18.40
2023-05-11T13:59:54.554Z,18.50
2023-05-11T14:02:22.421Z,18.50
2023-05-11T14:04:49.723Z,18.40
2023-05-11T14:07:16.983Z,18.30
2023-05-11T14:09:44.405Z,18.20
2023-05-11T14:12:11.805Z,18.10
2023-05-11T14:14:39.156Z,18.00
2023-05-11T14:17:06.584Z,18.00
2023-05-11T14:19:33.987Z,18.00
2023-05-11T14:22:01.227Z,18.00
2023-05-11T14:24:28.454Z,18.20
2023-05-11T14:26:55.827Z,18.20
2023-05-11T14:29:23.007Z,18.30
2023-05-11T14:31:50.817Z,18.50
2023-05-11T14:34:17.991Z,18.70
2023-05-11T14:36:45.293Z,18.90
2023-05-11T14:39:12.535Z,19.00
2023-05-11T14:41:39.633Z,19.10
2023-05-11T14:44:08.778Z,19.00
2023-05-11T14:46:36.213Z,18.80
2023-05-11T14:49:03.436Z,18.80
2023-05-11T14:51:30.686Z,18.70
2023-05-11T14:53:57.914Z,18.70
2023-05-11T14:56:25.187Z,18.80
2023-05-11T14:58:52.464Z,18.70
2023-05-11T15:01:19.713Z,18.60
2023-05-11T15:03:47.080Z,18.40
2023-05-11T15:06:21.190Z,18.20
2023-05-11T15:08:49.985Z,18.10
2023-05-11T15:11:18.513Z,18.20
2023-05-11T15:13:47.649Z,18.30
2023-05-11T15:16:15.344Z,18.40
2023-05-11T15:18:43.169Z,18.60
2023-05-11T15:21:10.506Z,18.80
2023-05-11T15:23:37.790Z,18.90
2023-05-11T15:26:05.046Z,18.90
2023-05-11T15:28:32.219Z,18.90
2023-05-11T15:30:59.346Z,19.00
2023-05-11T15:33:26.651Z,18.90
2023-05-11T15:35:53.888Z,18.80
2023-05-11T15:38:21.554Z,18.70
2023-05-11T15:40:48.784Z,18.70
2023-05-11T15:43:16.276Z,18.70
2023-05-11T15:45:44.009Z,18.80
2023-05-11T15:48:12.309Z,18.90
2023-05-11T15:50:39.474Z,18.90
2023-05-11T15:53:06.664Z,18.80
2023-05-11T15:55:34.532Z,18.80
2023-05-11T15:58:01.727Z,18.70
2023-05-11T16:00:28.785Z,18.50
2023-05-11T16:02:56.059Z,18.40
2023-05-11T16:05:23.222Z,18.40
2023-05-11T16:07:51.020Z,18.50
2023-05-11T16:10:18.491Z,18.50
2023-05-11T16:12:46.744Z,18.50
2023-05-11T16:15:13.942Z,18.50
2023-05-11T16:17:41.334Z,18.40
2023-05-11T16:20:09.046Z,18.00
2023-05-11T16:22:37.321Z,17.70
2023-05-11T16:25:05.080Z,17.40
2023-05-11T16:27:32.398Z,17.20
2023-05-11T16:30:00.140Z,16.90
2023-05-11T16:32:29.816Z,16.70
2023-05-11T16:34:57.243Z,16.50
2023-05-11T16:37:24.542Z,16.40
2023-05-11T16:39:51.772Z,16.30
2023-05-11T16:42:20.296Z,16.20
2023-05-11T16:44:48.702Z,16.20
2023-05-11T16:47:15.882Z,16.10
2023-05-11T16:49:43.065Z,16.20
2023-05-11T16:52:10.305Z,16.30
2023-05-11T16:54:37.405Z,16.50
2023-05-11T16:57:05.104Z,16.70
2023-05-11T16:59:34.795Z,16.80
2023-05-11T17:02:02.566Z,16.80
2023-05-11T17:04:29.765Z,16.80
2023-05-11T17:06:56.986Z,16.90
2023-05-11T17:09:24.145Z,16.90
2023-05-11T17:11:52.225Z,17.00
2023-05-11T17:14:19.375Z,16.90
2023-05-11T17:16:46.908Z,16.80
2023-05-11T17:19:14.173Z,16.80
2023-05-11T17:21:41.406Z,16.70
2023-05-11T17:24:08.795Z,16.60
2023-05-11T17:26:47.220Z,16.50
2023-05-11T17:29:16.671Z,16.30
2023-05-11T17:31:46.635Z,16.20
2023-05-11T17:34:14.723Z,16.10
2023-05-11T17:36:42.016Z,16.10
2023-05-11T17:39:10.240Z,16.10
2023-05-11T17:41:37.946Z,16.10
2023-05-11T17:44:05.572Z,16.00
2023-05-11T17:46:32.928Z,15.90
2023-05-11T17:49:00.197Z,15.90
2023-05-11T17:51:27.367Z,15.90
2023-05-11T17:53:54.738Z,15.90
2023-05-11T17:56:22.375Z,15.90
2023-05-11T17:58:50.256Z,15.90
2023-05-11T18:01:18.154Z,15.70
2023-05-11T18:03:46.391Z,15.70
2023-05-11T18:06:13.737Z,15.70
2023-05-11T18:08:40.986Z,15.70
2023-05-11T18:11:10.176Z,15.80
2023-05-11T18:13:37.385Z,15.80
2023-05-11T18:16:05.236Z,15.90
2023-05-11T18:18:32.518Z,16.00
2023-05-11T18:21:05.693Z,16.10
2023-05-11T18:23:33.013Z,16.20
2023-05-11T18:26:00.162Z,16.10
2023-05-11T18:28:27.356Z,16.20
2023-05-11T18:30:54.615Z,16.20
2023-05-11T18:33:22.035Z,16.10
2023-05-11T18:35:51.077Z,15.80
2023-05-11T18:38:18.398Z,15.70
2023-05-11T18:40:45.586Z,15.70
2023-05-11T18:43:14.138Z,15.60
2023-05-11T18:45:41.395Z,15.40
2023-05-11T18:48:08.706Z,15.40
2023-05-11T18:50:36.122Z,15.40
2023-05-11T18:53:03.372Z,15.40
2023-05-11T18:55:35.483Z,15.50
2023-05-11T18:58:08.528Z,15.50
2023-05-11T19:00:39.334Z,15.40
2023-05-11T19:03:06.695Z,15.40
2023-05-11T19:05:34.027Z,15.40
2023-05-11T19:08:01.583Z,15.30
2023-05-11T19:10:28.700Z,15.30
2023-05-11T19:12:56.223Z,15.30
2023-05-11T19:15:23.435Z,15.20
2023-05-11T19:17:50.759Z,15.10
2023-05-11T19:20:18.374Z,14.90
2023-05-11T19:22:45.767Z,14.90
2023-05-11T19:25:13.016Z,14.90
2023-05-11T19:27:40.423Z,14.80
2023-05-11T19:30:09.540Z,14.70
2023-05-11T19:32:37.435Z,14.70
2023-05-11T19:35:06.612Z,14.80
2023-05-11T19:37:34.330Z,14.80
2023-05-11T19:40:37.439Z,14.60
2023-05-11T19:42:48.733Z,14.60
2023-05-11T19:45:16.214Z,14.70
2023-05-11T19:47:44.713Z,14.70
2023-05-11T19:50:13.605Z,14.70
2023-05-11T19:52:40.971Z,14.80
2023-05-11T19:55:08.700Z,14.60
2023-05-11T19:57:37.565Z,14.50
2023-05-11T20:00:07.036Z,14.50
2023-05-11T20:02:34.889Z,14.50
2023-05-11T20:05:03.909Z,14.50
2023-05-11T20:07:32.247Z,14.60
2023-05-11T20:09:59.582Z,14.60
2023-05-11T20:12:26.774Z,14.60
2023-05-11T20:14:54.455Z,14.60
2023-05-11T20:17:21.784Z,14.70
2023-05-11T20:19:49.186Z,14.80
2023-05-11T20:22:16.293Z,14.80
2023-05-11T20:24:43.533Z,14.90
2023-05-11T20:27:11.190Z,14.80
2023-05-11T20:29:40.570Z,14.70
2023-05-11T20:32:08.041Z,14.50
2023-05-11T20:34:35.743Z,14.40
2023-05-11T20:37:03.013Z,14.30
2023-05-11T20:39:30.283Z,14.20
2023-05-11T20:41:59.230Z,14.20
2023-05-11T20:44:26.955Z,14.10
2023-05-11T20:46:54.718Z,14.10
2023-05-11T20:49:37.687Z,14.00
2023-05-11T20:52:06.065Z,14.00
2023-05-11T20:54:35.056Z,14.00
2023-05-11T20:57:04.742Z,14.00
2023-05-11T21:02:03.622Z,14.00
2023-05-11T21:04:31.577Z,14.00
2023-05-11T21:06:59.076Z,13.90
2023-05-11T21:09:26.466Z,13.80
2023-05-11T21:11:53.724Z,13.70
2023-05-11T21:14:20.971Z,13.60
2023-05-11T21:16:48.309Z,13.70
2023-05-11T21:19:16.722Z,13.80
2023-05-11T21:21:44.403Z,13.90
2023-05-11T21:24:14.267Z,14.00
2023-05-11T21:26:41.940Z,13.90
2023-05-11T21:29:12.375Z,13.70
2023-05-11T21:31:39.703Z,13.60
2023-05-11T21:34:06.799Z,13.40
2023-05-11T21:36:34.146Z,13.30
2023-05-11T21:39:01.411Z,13.30
2023-05-11T21:41:28.731Z,13.20
2023-05-11T21:43:55.903Z,13.20
2023-05-11T21:46:23.329Z,13.20
2023-05-11T21:48:50.525Z,13.10
2023-05-11T21:51:17.783Z,13.10
2023-05-11T21:53:45.123Z,13.10
2023-05-11T21:56:12.753Z,13.10
2023-05-11T21:58:39.914Z,13.10
2023-05-11T22:01:08.356Z,13.20
2023-05-11T22:03:35.733Z,13.20
2023-05-11T22:06:03.006Z,13.20
2023-05-11T22:08:30.242Z,13.20
2023-05-11T22:10:59.214Z,13.10
2023-05-11T22:13:27.136Z,13.10
2023-05-11T22:15:54.570Z,13.20
2023-05-11T22:18:21.891Z,13.20
2023-05-11T22:20:49.170Z,13.20
2023-05-11T22:23:16.379Z,13.10
2023-05-11T22:25:43.760Z,13.00
2023-05-11T22:28:11.072Z,13.10
2023-05-11T22:30:39.307Z,13.20
2023-05-11T22:33:06.474Z,13.20
2023-05-11T22:35:33.878Z,13.10
2023-05-11T22:38:01.936Z,13.00
2023-05-11T22:40:29.261Z,13.00
2023-05-11T22:42:56.693Z,12.90
2023-05-11T22:45:24.053Z,12.90
2023-05-11T22:47:51.428Z,13.00
2023-05-11T22:50:19.154Z,13.10
2023-05-11T22:52:47.579Z,13.30
2023-05-11T22:55:14.877Z,13.40
2023-05-11T22:57:42.080Z,13.40
2023-05-11T23:00:10.973Z,13.50
2023-05-11T23:02:38.526Z,13.50
2023-05-11T23:05:06.365Z,13.40
2023-05-11T23:07:33.744Z,13.40
2023-05-11T23:10:01.093Z,13.40
2023-05-11T23:12:28.294Z,13.40
2023-05-11T23:14:55.674Z,13.50
2023-05-11T23:17:23.030Z,13.40
2023-05-11T23:19:50.355Z,13.30
2023-05-11T23:22:17.591Z,13.30
2023-05-11T23:24:44.802Z,13.30
2023-05-11T23:27:12.010Z,13.30
2023-05-11T23:29:39.704Z,13.40
2023-05-11T23:32:07.249Z,13.40
2023-05-11T23:34:34.656Z,13.40
2023-05-11T23:37:01.953Z,13.40
2023-05-11T23:39:29.363Z,13.20
2023-05-11T23:41:56.489Z,13.10
2023-05-11T23:44:23.796Z,13.10
2023-05-11T23:46:50.923Z,13.00
2023-05-11T23:49:18.261Z,13.00
2023-05-11T23:51:45.441Z,13.00
2023-05-11T23:54:13.228Z,13.00
2023-05-11T23:56:40.454Z,13.10
2023-05-11T23:59:07.807Z,13.10
